Shelby County Airport
KEET : now visible

Airfield :











YOU CAN JOIN US ON...

 
LOGIN :

Register | Disclaimer

   EN    FR    IT 

 









Legend :    VFR   Marginal VFR   IFR   Intensive IFR   Very Intensive IFR
Visi :
Ceiling :
>= 8 km
>= 3000ft
5 to 8 km
1000 to 3000 ft
1500m to 5 km
500 to 1000 ft
800 to 1500m
200 to 500 ft
< 800m
< 200 ft
Symbols :   Thunderstorms  Fog  Heavy snow  Heavy precipitations  Wind > 20 kt







- Airport Elevation : 586 ft


KEET - Shelby County

CURRENT METAR :
  • 212153Z AUTO 18005KT 10SM SCT070 31/13 A3015 RMK AO2 SLP204 T03110128

EXPIRED METARs :
  • 212053Z AUTO VRB03KT 10SM FEW070 31/13 A3017 RMK AO2 SLP210 T03110133 56022
  • 211953Z AUTO 14006KT 10SM CLR 32/14 A3019 RMK AO2 SLP216 T03170144

TAF KEET
Valid from the 21 at 18:00 until the 22 at 18:00 UTC


211720Z 2118/2218 13007KT P6SM FEW050
FM220000 00000KT P6SM SKC
FM221500 15005KT P6SM FEW040
No reported NOTAMs for that airfield.



MET'MAP, your aeronautical weather chart ! - Copyright ORBIFLY December 2007 - Disclaimer

ORBIFLY MET'MAP TEAM :

Programming & Development : Alexandra Zaïnal
Concept & Development : Baudouin d'Aumeries
Co-Development & Prog : Marc-Olivier Méhu
Technical & hardware support : Manuel Goepfert

Contact : metmap@orbifly.com




SOURCES & CREDITS :

   NOAA       Earth
Advisory